Time;durP1;ratioP1;P1;durP2;ratioP2;P2;SDS_P1;SDS_P2;PMS_P1;PMS_P2;Temp;Humidity;BMP_temperature;BMP_pressure;BME280_temperature;BME280_humidity;BME280_pressure;Samples;Min_cycle;Max_cycle;Signal;HPM_P1;HPM_P2
2022/07/17 00:02:03;;;;;;;;;;;;;;;18.61;73.39;99802.63;4975547;28;866;-67
2022/07/17 00:04:30;;;;;;;;;;;;;;;18.54;73.49;99805.69;4975596;28;890;-68
2022/07/17 00:06:57;;;;;;;;;;;;;;;18.47;73.81;99806.72;4975488;28;848;-68
2022/07/17 00:09:23;;;;;;;;;;;;;;;18.43;73.88;99805.31;4975496;28;823;-68
2022/07/17 00:11:50;;;;;;;;;;;;;;;18.44;74.29;99818.06;4975391;28;815;-66
2022/07/17 00:14:17;;;;;;;;;;;;;;;18.52;74.22;99814.53;4975406;28;867;-67
2022/07/17 00:16:44;;;;;;;;;;;;;;;18.64;73.89;99818.50;4975487;28;1887;-68
2022/07/17 00:19:10;;;;;;;;;;;;;;;18.69;73.71;99815.13;4975134;28;977;-67
2022/07/17 00:21:37;;;;;;;;;;;;;;;18.69;73.87;99817.91;4975307;28;792;-67
2022/07/17 00:24:06;;;;;;;;;;;;;;;18.75;73.55;99821.69;4975211;28;828;-68
2022/07/17 00:26:33;;;;;;;;;;;;;;;18.81;73.52;99823.91;4975110;28;878;-68
2022/07/17 00:29:02;;;;;;;;;;;;;;;18.85;73.64;99819.72;4975116;28;886;-67
2022/07/17 00:31:29;;;;;;;;;;;;;;;18.89;73.50;99825.19;4975331;28;910;-68
2022/07/17 00:33:55;;;;;;;;;;;;;;;18.90;73.58;99818.34;4975338;28;898;-67
2022/07/17 00:36:22;;;;;;;;;;;;;;;18.95;73.77;99818.53;4974663;28;1887;-67
2022/07/17 00:38:48;;;;;;;;;;;;;;;19.04;73.65;99822.63;4974983;28;857;-69
2022/07/17 00:41:15;;;;;;;;;;;;;;;19.08;73.56;99823.25;4974915;28;804;-69
2022/07/17 00:43:42;;;;;;;;;;;;;;;19.10;73.40;99820.78;4974537;28;864;-68
2022/07/17 00:46:08;;;;;;;;;;;;;;;19.13;73.26;99814.25;4974780;28;874;-69
2022/07/17 00:48:35;;;;;;;;;;;;;;;19.06;73.26;99815.31;4974742;28;839;-69
2022/07/17 00:51:02;;;;;;;;;;;;;;;19.03;73.40;99823.84;4974733;28;827;-69
2022/07/17 00:53:32;;;;;;;;;;;;;;;18.98;73.60;99816.81;4974842;28;815;-69
2022/07/17 00:55:58;;;;;;;;;;;;;;;18.91;73.76;99817.91;4974503;28;1918;-69
2022/07/17 00:58:25;;;;;;;;;;;;;;;18.77;74.32;99815.59;4974849;28;831;-69
2022/07/17 01:00:53;;;;;;;;;;;;;;;18.59;75.12;99821.13;4974490;28;875;-69
2022/07/17 01:03:21;;;;;;;;;;;;;;;18.47;75.74;99822.75;4974525;28;894;-69
2022/07/17 01:08:51;;;;;;;;;;;;;;;18.28;76.25;99825.41;4974386;28;657;-69
2022/07/17 01:11:18;;;;;;;;;;;;;;;18.22;76.64;99820.84;4974259;28;907;-70
2022/07/17 01:13:45;;;;;;;;;;;;;;;18.21;76.94;99816.50;4974314;28;795;-69
2022/07/17 01:16:13;;;;;;;;;;;;;;;18.25;77.08;99823.53;4974189;28;1890;-69
2022/07/17 01:18:41;;;;;;;;;;;;;;;18.30;77.08;99819.38;4974071;28;871;-69
2022/07/17 01:21:08;;;;;;;;;;;;;;;18.33;76.88;99819.25;4974152;28;961;-69
2022/07/17 01:23:34;;;;;;;;;;;;;;;18.31;77.02;99818.13;4974009;28;882;-68
2022/07/17 01:26:01;;;;;;;;;;;;;;;18.29;77.08;99824.19;4956721;28;1173;-68
2022/07/17 01:28:29;;;;;;;;;;;;;;;18.25;77.32;99822.75;4974028;28;910;-68
2022/07/17 01:30:56;;;;;;;;;;;;;;;18.17;77.26;99823.00;4974033;28;1024;-69
2022/07/17 01:33:22;;;;;;;;;;;;;;;18.15;77.49;99819.88;4973928;28;886;-69
2022/07/17 01:35:49;;;;;;;;;;;;;;;18.14;77.46;99821.13;4973626;28;1914;-69
2022/07/17 01:38:15;;;;;;;;;;;;;;;18.08;77.43;99813.75;4973913;28;854;-68
2022/07/17 01:40:41;;;;;;;;;;;;;;;18.00;77.49;99818.03;4973808;28;835;-69
2022/07/17 01:43:09;;;;;;;;;;;;;;;17.91;77.71;99813.16;4973759;28;915;-69
2022/07/17 01:45:35;;;;;;;;;;;;;;;17.80;77.98;99809.94;4973680;28;892;-69
2022/07/17 01:48:02;;;;;;;;;;;;;;;17.72;78.39;99812.19;4956226;28;1303;-69
2022/07/17 01:50:28;;;;;;;;;;;;;;;17.61;78.81;99806.94;4973750;28;871;-69
2022/07/17 01:52:55;;;;;;;;;;;;;;;17.48;79.27;99815.34;4973631;28;796;-69
2022/07/17 01:55:21;;;;;;;;;;;;;;;17.31;80.36;99803.53;4973238;28;1894;-70
2022/07/17 01:57:47;;;;;;;;;;;;;;;17.22;81.20;99802.63;4973131;28;862;-69
2022/07/17 02:00:16;;;;;;;;;;;;;;;17.18;82.01;99799.97;4973809;28;784;-70
2022/07/17 02:02:43;;;;;;;;;;;;;;;17.07;82.89;99797.53;4973415;28;902;-69
2022/07/17 02:05:10;;;;;;;;;;;;;;;16.93;83.37;99812.69;4973579;28;799;-69
2022/07/17 02:07:39;;;;;;;;;;;;;;;16.86;84.01;99807.34;4973339;28;827;-70
2022/07/17 02:10:07;;;;;;;;;;;;;;;16.87;84.54;99811.69;4973606;28;878;-70
2022/07/17 02:12:34;;;;;;;;;;;;;;;16.88;84.79;99810.47;4973242;28;796;-69
2022/07/17 02:15:01;;;;;;;;;;;;;;;16.82;84.98;99805.91;4973161;28;1951;-69
2022/07/17 02:17:28;;;;;;;;;;;;;;;16.70;85.43;99810.97;4973093;28;819;-69
2022/07/17 02:19:54;;;;;;;;;;;;;;;16.59;86.07;99804.94;4973165;28;867;-69
2022/07/17 02:22:21;;;;;;;;;;;;;;;16.53;86.64;99810.28;4973373;28;923;-70
2022/07/17 02:24:48;;;;;;;;;;;;;;;16.46;87.08;99818.06;4955764;28;1380;-69
2022/07/17 02:27:14;;;;;;;;;;;;;;;16.40;87.46;99822.63;4973055;28;835;-69
2022/07/17 02:29:40;;;;;;;;;;;;;;;16.40;87.76;99826.19;4973039;28;858;-69
2022/07/17 02:32:07;;;;;;;;;;;;;;;16.52;88.09;99825.47;4973271;28;1020;-69
2022/07/17 02:34:33;;;;;;;;;;;;;;;16.69;87.74;99817.78;4972680;28;1910;-68
2022/07/17 02:37:00;;;;;;;;;;;;;;;16.83;87.70;99819.38;4973002;28;879;-68
2022/07/17 02:39:26;;;;;;;;;;;;;;;16.94;87.12;99822.66;4972782;28;913;-69
2022/07/17 02:41:53;;;;;;;;;;;;;;;17.03;87.12;99826.78;4972929;28;820;-69
2022/07/17 02:44:19;;;;;;;;;;;;;;;17.12;86.83;99818.53;4972750;28;826;-69
2022/07/17 02:46:46;;;;;;;;;;;;;;;17.26;86.51;99826.47;4972723;28;906;-70
2022/07/17 02:49:12;;;;;;;;;;;;;;;17.36;86.20;99824.53;4972799;28;851;-69
2022/07/17 02:51:39;;;;;;;;;;;;;;;17.46;85.63;99822.63;4973002;28;914;-68
2022/07/17 02:54:06;;;;;;;;;;;;;;;17.55;85.33;99831.88;4972862;28;847;-68
2022/07/17 02:56:33;;;;;;;;;;;;;;;17.62;84.74;99822.47;4972894;28;1894;-69
2022/07/17 02:58:59;;;;;;;;;;;;;;;17.65;84.50;99823.59;4955568;28;1170;-69
2022/07/17 03:01:26;;;;;;;;;;;;;;;17.67;84.15;99821.91;4973230;28;879;-70
2022/07/17 03:03:52;;;;;;;;;;;;;;;17.66;84.25;99834.31;4973464;28;793;-69
2022/07/17 03:06:19;;;;;;;;;;;;;;;17.69;84.35;99830.63;4972674;28;847;-69
2022/07/17 03:08:46;;;;;;;;;;;;;;;17.74;84.00;99832.06;4976682;28;841;-70
2022/07/17 03:11:13;;;;;;;;;;;;;;;17.79;84.02;99836.31;4976658;28;847;-68
2022/07/17 03:13:40;;;;;;;;;;;;;;;17.84;83.91;99830.19;4976848;28;808;-68
2022/07/17 03:19:08;;;;;;;;;;;;;;;17.87;83.75;99837.66;4976488;28;625;-70
2022/07/17 03:21:35;;;;;;;;;;;;;;;17.91;83.89;99832.72;4976328;28;811;-69
2022/07/17 03:24:01;;;;;;;;;;;;;;;17.97;83.38;99842.09;4976344;28;808;-69
2022/07/17 03:29:30;;;;;;;;;;;;;;;18.02;83.25;99833.13;4976309;28;685;-69
2022/07/17 03:31:56;;;;;;;;;;;;;;;18.03;83.09;99834.72;4976270;28;997;-69
2022/07/17 03:34:23;;;;;;;;;;;;;;;18.04;83.12;99841.84;4976356;28;1409;-69
2022/07/17 03:36:50;;;;;;;;;;;;;;;18.05;83.07;99837.03;4976113;28;1903;-69
2022/07/17 03:39:17;;;;;;;;;;;;;;;18.05;82.78;99843.44;4976227;28;886;-69
2022/07/17 03:41:44;;;;;;;;;;;;;;;18.07;83.00;99845.75;4976194;28;878;-69
2022/07/17 03:44:10;;;;;;;;;;;;;;;18.09;82.82;99838.50;4976205;28;851;-69
2022/07/17 03:46:37;;;;;;;;;;;;;;;18.16;82.52;99852.22;4975859;28;807;-69
2022/07/17 03:49:04;;;;;;;;;;;;;;;18.20;82.40;99842.91;4975935;28;835;-68
2022/07/17 03:51:31;;;;;;;;;;;;;;;18.20;82.36;99851.28;4975792;28;800;-69
2022/07/17 03:53:57;;;;;;;;;;;;;;;18.25;82.13;99847.94;4975844;28;878;-68
2022/07/17 03:56:24;;;;;;;;;;;;;;;18.30;82.16;99836.91;4975724;28;1890;-69
2022/07/17 03:58:51;;;;;;;;;;;;;;;18.38;81.80;99848.66;4975830;28;855;-69
2022/07/17 04:01:17;;;;;;;;;;;;;;;18.44;81.65;99849.63;4975845;28;831;-69
2022/07/17 04:03:43;;;;;;;;;;;;;;;18.50;81.46;99847.81;4975851;28;792;-69
2022/07/17 04:06:10;;;;;;;;;;;;;;;18.57;81.33;99852.34;4976249;28;800;-69
2022/07/17 04:08:36;;;;;;;;;;;;;;;18.67;81.08;99859.59;4975525;28;882;-68
2022/07/17 04:11:03;;;;;;;;;;;;;;;18.79;80.95;99863.56;4975465;28;823;-69
2022/07/17 04:13:29;;;;;;;;;;;;;;;18.95;80.83;99857.75;4975677;28;831;-69
2022/07/17 04:15:56;;;;;;;;;;;;;;;19.27;80.15;99861.31;4975217;28;1951;-69
2022/07/17 04:18:27;;;;;;;;;;;;;;;20.11;76.97;99860.25;4975003;28;991;-69
2022/07/17 04:20:55;;;;;;;;;;;;;;;20.84;73.93;99860.69;4975264;28;891;-69
2022/07/17 04:23:22;;;;;;;;;;;;;;;21.55;68.50;99860.13;4975277;28;847;-70
2022/07/17 04:25:56;;;;;;;;;;;;;;;22.33;62.33;99854.59;4975234;28;808;-70
2022/07/17 04:28:23;;;;;;;;;;;;;;;22.91;59.35;99857.16;4957736;28;1454;-69
2022/07/17 04:30:50;;;;;;;;;;;;;;;23.25;56.78;99858.50;4974922;28;883;-70
2022/07/17 04:33:17;;;;;;;;;;;;;;;23.50;55.77;99859.13;4975102;28;867;-69
2022/07/17 04:35:43;;;;;;;;;;;;;;;23.68;54.67;99860.91;4974719;28;2004;-69
2022/07/17 04:38:11;;;;;;;;;;;;;;;23.80;54.00;99854.19;4974996;28;859;-69
2022/07/17 04:40:37;;;;;;;;;;;;;;;23.92;53.98;99866.38;4975204;28;839;-69
2022/07/17 04:43:05;;;;;;;;;;;;;;;24.02;53.23;99867.78;4974838;28;828;-68
2022/07/17 04:45:31;;;;;;;;;;;;;;;24.11;51.81;99866.88;4974702;28;878;-67
2022/07/17 04:47:58;;;;;;;;;;;;;;;24.17;50.14;99870.53;4975019;28;886;-69
2022/07/17 05:02:40;;;;;;;;;;;;;;;24.47;48.94;99873.94;4915128;29;1121;-70
2022/07/17 05:17:29;;;;;;;;;;;;;;;24.75;47.05;99887.63;4915041;29;672;-74
2022/07/17 05:32:08;;;;;;;;;;;;;;;25.71;45.47;99911.03;4914435;29;1415;-69
2022/07/17 05:34:35;;;;;;;;;;;;;;;26.18;44.28;99908.72;4914275;29;1357;-72
2022/07/17 05:40:04;;;;;;;;;;;;;;;26.72;43.75;99914.31;4959995;28;951;-72
2022/07/17 05:42:30;;;;;;;;;;;;;;;27.00;43.56;99917.19;4973583;28;882;-70
2022/07/17 05:44:58;;;;;;;;;;;;;;;27.34;41.98;99917.22;4956354;28;1173;-70
2022/07/17 05:47:25;;;;;;;;;;;;;;;27.51;42.11;99914.38;4973602;28;823;-71
2022/07/17 05:49:51;;;;;;;;;;;;;;;27.71;41.26;99916.13;4974021;28;815;-70
2022/07/17 05:52:18;;;;;;;;;;;;;;;27.95;40.58;99924.09;4973540;28;898;-68
2022/07/17 05:54:44;;;;;;;;;;;;;;;28.54;39.82;99927.00;4973536;28;1961;-70
2022/07/17 05:57:10;;;;;;;;;;;;;;;29.69;38.26;99930.00;4973507;28;903;-69
2022/07/17 05:59:37;;;;;;;;;;;;;;;31.16;36.39;99931.00;4973432;28;841;-70
2022/07/17 06:02:03;;;;;;;;;;;;;;;31.95;34.37;99924.69;4973541;28;815;-71
2022/07/17 06:04:30;;;;;;;;;;;;;;;31.16;34.98;99926.06;4973491;28;808;-69
2022/07/17 06:06:57;;;;;;;;;;;;;;;29.86;36.81;99927.78;4973532;28;913;-69
2022/07/17 06:09:23;;;;;;;;;;;;;;;29.44;37.55;99929.97;4973681;28;769;-69
2022/07/17 06:11:50;;;;;;;;;;;;;;;30.79;35.71;99927.66;4973527;28;870;-69
2022/07/17 06:14:17;;;;;;;;;;;;;;;30.72;34.86;99926.19;4973636;28;839;-69
2022/07/17 06:16:43;;;;;;;;;;;;;;;29.93;36.17;99926.41;4973377;28;1910;-68
2022/07/17 06:19:10;;;;;;;;;;;;;;;29.30;37.64;99923.38;4973217;28;1043;-68
2022/07/17 06:21:36;;;;;;;;;;;;;;;28.73;38.13;99935.69;4956041;28;1329;-69
2022/07/17 06:24:03;;;;;;;;;;;;;;;27.87;39.47;99935.25;4973349;28;851;-69
2022/07/17 06:26:33;;;;;;;;;;;;;;;27.32;40.21;99939.66;4973088;28;859;-68
2022/07/17 06:28:59;;;;;;;;;;;;;;;27.23;40.49;99932.19;4973287;28;844;-69
2022/07/17 06:31:26;;;;;;;;;;;;;;;27.60;40.04;99933.97;4973291;28;954;-69
2022/07/17 06:33:53;;;;;;;;;;;;;;;29.39;37.56;99936.50;4973206;28;799;-68
2022/07/17 06:36:43;;;;;;;;;;;;;;;31.08;35.08;99930.88;4972996;28;1902;-69
2022/07/17 06:39:10;;;;;;;;;;;;;;;32.28;33.29;99931.03;4972946;28;804;-69
2022/07/17 06:41:36;;;;;;;;;;;;;;;32.89;31.97;99940.38;4972652;28;836;-69
2022/07/17 06:44:15;;;;;;;;;;;;;;;33.31;29.70;99936.81;4972719;28;902;-68
2022/07/17 06:46:45;;;;;;;;;;;;;;;33.10;30.33;99942.53;4972418;28;1289;-67
2022/07/17 06:49:11;;;;;;;;;;;;;;;33.52;30.24;99946.16;4972853;28;899;-70
2022/07/17 06:51:38;;;;;;;;;;;;;;;34.44;29.29;99957.47;4972744;28;851;-70
2022/07/17 06:54:05;;;;;;;;;;;;;;;34.31;28.97;99961.22;4972788;28;858;-70
2022/07/17 06:56:32;;;;;;;;;;;;;;;34.46;28.54;99949.06;4972685;28;1895;-69
2022/07/17 06:58:58;;;;;;;;;;;;;;;34.40;28.65;99950.53;4972955;28;876;-68
2022/07/17 07:13:36;;;;;;;;;;;;;;;34.31;29.31;99961.22;4972864;28;602;-70
2022/07/17 07:16:03;;;;;;;;;;;;;;;34.00;29.23;99960.25;4972491;28;1953;-69
2022/07/17 07:18:30;;;;;;;;;;;;;;;34.09;29.35;99967.56;4972538;28;863;-69
2022/07/17 07:20:58;;;;;;;;;;;;;;;34.31;28.90;99966.97;4972765;28;839;-69
2022/07/17 07:23:30;;;;;;;;;;;;;;;34.23;28.90;99966.16;4972562;28;918;-68
2022/07/17 07:25:57;;;;;;;;;;;;;;;33.77;29.68;99977.28;4972369;28;894;-70
2022/07/17 07:28:23;;;;;;;;;;;;;;;34.14;29.51;99969.53;4972473;28;879;-70
2022/07/17 07:30:50;;;;;;;;;;;;;;;34.83;29.35;99961.25;4972525;28;910;-70
2022/07/17 07:33:17;;;;;;;;;;;;;;;35.35;28.28;99969.78;4972440;28;907;-69
2022/07/17 07:38:45;;;;;;;;;;;;;;;35.05;28.85;99962.63;4972419;28;614;-70
2022/07/17 07:41:12;;;;;;;;;;;;;;;35.26;28.80;99967.50;4954941;28;1316;-70
2022/07/17 07:43:39;;;;;;;;;;;;;;;35.80;28.69;99967.50;4972344;28;827;-69
2022/07/17 07:46:06;;;;;;;;;;;;;;;36.08;27.82;99969.34;4972528;28;843;-70
2022/07/17 07:48:33;;;;;;;;;;;;;;;36.17;27.09;99972.44;4972264;28;847;-70
2022/07/17 07:51:00;;;;;;;;;;;;;;;36.20;27.68;99973.38;4972523;28;879;-69
2022/07/17 07:53:27;;;;;;;;;;;;;;;36.45;26.96;99975.63;4972168;28;883;-70
2022/07/17 07:55:54;;;;;;;;;;;;;;;36.26;28.05;99981.81;4975237;28;1911;-68
2022/07/17 07:58:21;;;;;;;;;;;;;;;36.69;27.05;99974.94;4975680;28;896;-69
2022/07/17 08:00:48;;;;;;;;;;;;;;;36.96;26.78;99980.19;4975694;28;800;-69
2022/07/17 08:03:15;;;;;;;;;;;;;;;37.10;26.46;99980.69;4975692;28;804;-69
2022/07/17 08:05:42;;;;;;;;;;;;;;;37.08;26.87;99978.38;4975488;28;857;-70
2022/07/17 08:08:08;;;;;;;;;;;;;;;37.08;26.63;99986.25;4975869;28;847;-69
2022/07/17 08:10:35;;;;;;;;;;;;;;;36.81;27.28;99995.44;4957932;28;1363;-68
2022/07/17 08:13:02;;;;;;;;;;;;;;;36.74;26.09;99996.22;4975484;28;819;-70
2022/07/17 08:15:29;;;;;;;;;;;;;;;36.28;27.16;99996.41;4975329;28;1995;-68
2022/07/17 08:17:56;;;;;;;;;;;;;;;36.38;27.02;99995.22;4975298;28;866;-68
2022/07/17 08:20:22;;;;;;;;;;;;;;;36.38;27.04;100000.19;4974001;28;1265;-69
2022/07/17 08:22:50;;;;;;;;;;;;;;;36.35;26.73;99989.84;4975271;28;788;-69
2022/07/17 08:25:16;;;;;;;;;;;;;;;35.86;27.47;100009.09;4975371;28;816;-70
2022/07/17 08:27:46;;;;;;;;;;;;;;;35.06;28.29;100004.38;4975228;28;875;-69
2022/07/17 08:30:14;;;;;;;;;;;;;;;34.61;29.22;100000.00;4975096;28;1048;-68
2022/07/17 08:32:41;;;;;;;;;;;;;;;35.61;29.09;99999.47;4975043;28;1063;-69
2022/07/17 08:35:09;;;;;;;;;;;;;;;36.19;27.77;100006.41;4974822;28;1969;-69
2022/07/17 08:37:43;;;;;;;;;;;;;;;36.00;27.75;100006.78;4974977;28;1014;-71
2022/07/17 08:40:20;;;;;;;;;;;;;;;36.18;28.10;100004.84;4974938;28;895;-69
2022/07/17 08:42:47;;;;;;;;;;;;;;;35.67;28.30;100005.84;4974849;28;832;-70
2022/07/17 08:45:14;;;;;;;;;;;;;;;35.35;28.74;100005.03;4957585;28;1533;-69
2022/07/17 08:47:43;;;;;;;;;;;;;;;35.70;28.18;100008.34;4974864;28;819;-70
2022/07/17 08:50:10;;;;;;;;;;;;;;;36.06;28.00;100007.34;4974763;28;847;-69
2022/07/17 08:52:38;;;;;;;;;;;;;;;36.03;27.71;100016.34;4974828;28;823;-70
2022/07/17 08:55:26;;;;;;;;;;;;;;;35.50;28.40;100006.38;4973376;28;1950;-70
2022/07/17 08:57:53;;;;;;;;;;;;;;;35.00;29.40;100003.03;4974718;28;831;-69
2022/07/17 09:00:22;;;;;;;;;;;;;;;35.28;28.93;100013.66;4974776;28;822;-69
2022/07/17 09:02:55;;;;;;;;;;;;;;;35.62;28.51;100006.78;4974902;28;854;-69
2022/07/17 09:05:28;;;;;;;;;;;;;;;35.15;28.85;100003.84;4974433;28;796;-71
2022/07/17 09:08:05;;;;;;;;;;;;;;;34.19;29.52;100008.78;4974438;28;1280;-67
2022/07/17 09:10:32;;;;;;;;;;;;;;;34.02;30.38;100002.72;4972941;28;1300;-68
2022/07/17 09:13:00;;;;;;;;;;;;;;;34.00;31.21;99994.66;4974387;28;859;-69
2022/07/17 09:15:27;;;;;;;;;;;;;;;34.40;31.29;99997.22;4974269;28;1886;-69
2022/07/17 09:17:55;;;;;;;;;;;;;;;34.66;30.63;99996.22;4974241;28;859;-70
2022/07/17 09:20:22;;;;;;;;;;;;;;;35.04;30.05;99983.31;4974588;28;882;-69
2022/07/17 09:26:12;;;;;;;;;;;;;;;34.82;30.34;99985.53;4974191;28;606;-68
2022/07/17 09:28:46;;;;;;;;;;;;;;;34.82;30.43;99988.41;4974082;28;870;-68
2022/07/17 09:31:14;;;;;;;;;;;;;;;34.48;30.77;99985.78;4974158;28;1027;-68
2022/07/17 09:33:40;;;;;;;;;;;;;;;33.97;31.40;99985.09;4974157;28;784;-68
2022/07/17 09:36:08;;;;;;;;;;;;;;;33.64;32.03;99997.44;4973727;28;1976;-68
2022/07/17 09:38:36;;;;;;;;;;;;;;;33.79;32.44;100005.41;4974003;28;784;-69
2022/07/17 09:41:09;;;;;;;;;;;;;;;33.88;31.56;100004.88;4973902;28;796;-69
2022/07/17 09:43:44;;;;;;;;;;;;;;;33.87;32.57;100011.97;4973886;28;804;-69
2022/07/17 09:46:20;;;;;;;;;;;;;;;34.21;32.46;100006.09;4973681;28;858;-67
2022/07/17 10:00:59;;;;;;;;;;;;;;;33.18;33.78;99994.91;4973765;28;685;-69
2022/07/17 10:35:15;;;;;;;;;;;;;;;31.80;34.75;99993.03;4972964;28;1985;-60
2022/07/17 10:37:41;;;;;;;;;;;;;;;32.26;34.11;99985.94;4973002;28;873;-60
2022/07/17 10:40:19;;;;;;;;;;;;;;;33.15;33.50;99988.19;4972810;28;1093;-61
2022/07/17 10:42:48;;;;;;;;;;;;;;;33.02;33.04;99985.34;4972940;28;831;-60
2022/07/17 10:45:17;;;;;;;;;;;;;;;33.18;32.85;99977.72;4973050;28;787;-60
2022/07/17 10:47:50;;;;;;;;;;;;;;;32.50;32.96;99987.03;4972784;28;866;-61
2022/07/17 10:50:51;;;;;;;;;;;;;;;31.53;34.27;99987.25;4972866;28;854;-60
2022/07/17 10:53:22;;;;;;;;;;;;;;;31.74;34.47;99993.13;4972761;28;894;-61
2022/07/17 10:55:51;;;;;;;;;;;;;;;31.48;35.01;99994.59;4972987;28;1981;-61
2022/07/17 10:58:28;;;;;;;;;;;;;;;32.35;34.45;99971.19;4972751;28;1041;-60
2022/07/17 11:00:57;;;;;;;;;;;;;;;33.53;32.09;99975.56;4972751;28;870;-60
2022/07/17 11:03:24;;;;;;;;;;;;;;;33.87;31.42;99981.19;4972622;28;882;-61
2022/07/17 11:06:21;;;;;;;;;;;;;;;34.05;31.05;99982.25;4972684;28;851;-61
2022/07/17 11:09:13;;;;;;;;;;;;;;;34.75;30.15;99969.84;4959596;28;1433;-61
2022/07/17 11:11:40;;;;;;;;;;;;;;;35.77;28.95;99970.19;4972833;28;811;-61
2022/07/17 11:14:18;;;;;;;;;;;;;;;36.25;28.06;99963.78;4972612;28;870;-61
2022/07/17 11:19:54;;;;;;;;;;;;;;;35.38;28.96;99957.16;4952231;28;1036;-61
2022/07/17 11:25:24;;;;;;;;;;;;;;;34.84;29.53;99967.75;4972691;28;642;-61
2022/07/17 11:27:56;;;;;;;;;;;;;;;35.55;29.62;99959.47;4972726;28;834;-60
2022/07/17 11:30:34;;;;;;;;;;;;;;;36.49;28.18;99953.72;4976323;28;823;-60
2022/07/17 11:33:03;;;;;;;;;;;;;;;37.05;27.77;99936.34;4958435;28;1340;-60
2022/07/17 11:35:49;;;;;;;;;;;;;;;36.56;27.94;99950.03;4976122;28;1959;-61
2022/07/17 11:38:15;;;;;;;;;;;;;;;36.59;27.43;99946.00;4991009;28;1336;-60
2022/07/17 11:40:47;;;;;;;;;;;;;;;35.53;28.04;99942.03;4976116;28;850;-61
2022/07/17 11:43:16;;;;;;;;;;;;;;;34.40;29.17;99939.06;4976369;28;826;-61
2022/07/17 11:45:44;;;;;;;;;;;;;;;33.51;29.91;99943.84;4976007;28;799;-61
2022/07/17 11:48:18;;;;;;;;;;;;;;;33.22;30.58;99935.19;4976100;28;881;-61
2022/07/17 11:50:54;;;;;;;;;;;;;;;33.17;31.42;99938.97;4975929;28;803;-61
2022/07/17 11:53:30;;;;;;;;;;;;;;;32.71;32.06;99947.81;4975861;28;830;-60
2022/07/17 11:55:56;;;;;;;;;;;;;;;33.43;31.08;99954.47;4975775;28;2006;-60
2022/07/17 11:58:23;;;;;;;;;;;;;;;33.94;29.80;99951.81;4975814;28;877;-60
2022/07/17 12:01:05;;;;;;;;;;;;;;;33.28;30.34;99944.41;4975697;28;795;-60
2022/07/17 12:03:32;;;;;;;;;;;;;;;32.05;31.39;99948.66;4976129;28;823;-61
2022/07/17 12:06:01;;;;;;;;;;;;;;;31.50;32.11;99954.84;4976109;28;830;-60
2022/07/17 12:08:50;;;;;;;;;;;;;;;31.22;33.31;99954.53;4975694;28;876;-60
2022/07/17 12:11:22;;;;;;;;;;;;;;;30.80;34.06;99954.88;4975592;28;834;-60
2022/07/17 12:13:53;;;;;;;;;;;;;;;30.47;35.09;99962.59;4975510;28;874;-60
2022/07/17 12:19:24;;;;;;;;;;;;;;;29.95;35.95;99957.97;4975451;28;801;-60
2022/07/17 12:22:04;;;;;;;;;;;;;;;29.82;36.60;99963.56;4975315;28;878;-61
2022/07/17 12:37:00;;;;;;;;;;;;;;;30.24;36.53;99955.59;4955819;29;1977;-60
2022/07/17 12:39:28;;;;;;;;;;;;;;;30.67;36.13;99969.06;4955530;28;818;-60
2022/07/17 12:41:55;;;;;;;;;;;;;;;33.17;33.70;99953.28;4955457;28;783;-61
2022/07/17 12:44:22;;;;;;;;;;;;;;;35.69;30.33;99957.94;4955673;28;882;-61
2022/07/17 12:46:48;;;;;;;;;;;;;;;37.48;27.93;99940.06;4955901;28;870;-61
2022/07/17 12:49:18;;;;;;;;;;;;;;;38.00;26.15;99948.03;4955583;28;890;-61
2022/07/17 12:51:44;;;;;;;;;;;;;;;38.92;24.89;99929.59;4954262;29;1158;-62
2022/07/17 12:54:31;;;;;;;;;;;;;;;39.27;23.40;99938.13;4955508;28;858;-61
2022/07/17 12:56:59;;;;;;;;;;;;;;;37.42;24.52;99933.78;4954017;28;1899;-61
2022/07/17 12:59:26;;;;;;;;;;;;;;;36.49;25.70;99935.66;4955380;28;858;-61
2022/07/17 13:01:54;;;;;;;;;;;;;;;35.23;27.30;99946.44;4955233;28;843;-62
2022/07/17 13:04:23;;;;;;;;;;;;;;;33.80;28.93;99947.53;4955227;28;804;-61
2022/07/17 13:06:50;;;;;;;;;;;;;;;32.42;30.02;99946.09;4955200;28;1116;-61
2022/07/17 13:09:18;;;;;;;;;;;;;;;31.60;31.72;99949.50;4953916;29;1174;-61
2022/07/17 13:11:45;;;;;;;;;;;;;;;31.07;32.80;99944.38;4955644;28;850;-61
2022/07/17 13:14:12;;;;;;;;;;;;;;;31.01;33.07;99945.78;4955371;28;804;-61
2022/07/17 13:16:39;;;;;;;;;;;;;;;30.69;33.43;99952.94;4954950;28;1886;-61
2022/07/17 13:19:05;;;;;;;;;;;;;;;30.93;33.59;99949.25;4954981;28;819;-61
2022/07/17 13:21:32;;;;;;;;;;;;;;;33.21;31.04;99938.63;4954823;28;1262;-61
2022/07/17 13:24:23;;;;;;;;;;;;;;;34.01;29.72;99930.25;4954922;28;811;-61
2022/07/17 13:30:03;;;;;;;;;;;;;;;37.01;26.60;99923.72;4954764;29;622;-62
2022/07/17 13:35:34;;;;;;;;;;;;;;;37.66;24.81;99919.94;4963465;28;1902;-61
2022/07/17 13:41:05;;;;;;;;;;;;;;;36.55;24.00;99928.38;4973471;28;1087;-63
2022/07/17 13:43:33;;;;;;;;;;;;;;;35.82;24.51;99927.44;4973837;28;857;-63
2022/07/17 13:46:21;;;;;;;;;;;;;;;35.25;25.20;99932.25;4973804;28;819;-61
2022/07/17 13:51:56;;;;;;;;;;;;;;;36.08;25.34;99926.22;4972718;28;1362;-61
2022/07/17 13:54:23;;;;;;;;;;;;;;;36.00;24.92;99923.38;4973614;28;851;-62
2022/07/17 13:56:49;;;;;;;;;;;;;;;35.54;25.04;99927.06;4973512;28;1998;-61
2022/07/17 13:59:36;;;;;;;;;;;;;;;35.02;24.75;99917.84;4956170;28;1258;-61
2022/07/17 14:02:03;;;;;;;;;;;;;;;35.35;25.06;99913.09;4973480;28;855;-61
2022/07/17 14:04:45;;;;;;;;;;;;;;;35.90;25.07;99920.31;4973514;28;847;-61
2022/07/17 14:07:12;;;;;;;;;;;;;;;35.91;24.92;99924.75;4956228;28;1234;-61
2022/07/17 14:09:41;;;;;;;;;;;;;;;35.76;25.57;99927.63;4973457;28;869;-61
2022/07/17 14:15:13;;;;;;;;;;;;;;;35.80;26.19;99928.00;4973284;28;1890;-61
2022/07/17 14:18:05;;;;;;;;;;;;;;;36.51;25.08;99935.84;4973527;28;862;-61
2022/07/17 14:20:41;;;;;;;;;;;;;;;36.97;24.16;99927.75;4973332;28;806;-61
2022/07/17 14:23:46;;;;;;;;;;;;;;;36.60;23.91;99923.72;4955963;28;1335;-61
2022/07/17 14:26:15;;;;;;;;;;;;;;;35.56;25.27;99953.13;4973154;28;1036;-61
2022/07/17 14:28:42;;;;;;;;;;;;;;;34.87;26.15;99935.81;4973061;28;819;-61
2022/07/17 14:31:09;;;;;;;;;;;;;;;34.37;26.77;99935.22;4973061;28;858;-61
2022/07/17 14:33:36;;;;;;;;;;;;;;;34.24;27.24;99926.75;4955859;28;1194;-61
2022/07/17 14:36:03;;;;;;;;;;;;;;;34.19;27.70;99924.84;4972801;28;1973;-61
2022/07/17 14:38:30;;;;;;;;;;;;;;;34.00;27.80;99925.84;4955714;28;1201;-61
2022/07/17 14:40:57;;;;;;;;;;;;;;;33.69;28.55;99917.06;4972996;28;877;-61
2022/07/17 14:43:24;;;;;;;;;;;;;;;33.21;30.26;99909.97;4955619;28;1261;-61
2022/07/17 14:45:51;;;;;;;;;;;;;;;32.58;31.87;99916.38;4955593;28;1281;-61
2022/07/17 14:48:18;;;;;;;;;;;;;;;32.27;33.43;99915.22;4972949;28;814;-61
2022/07/17 14:50:45;;;;;;;;;;;;;;;32.03;33.47;99917.00;4972800;28;883;-60
2022/07/17 14:53:12;;;;;;;;;;;;;;;32.00;33.25;99915.25;4972888;28;874;-61
2022/07/17 14:55:39;;;;;;;;;;;;;;;32.07;33.55;99916.66;4972728;28;1894;-61
2022/07/17 14:58:06;;;;;;;;;;;;;;;32.10;33.59;99916.34;4972665;28;807;-61
2022/07/17 15:00:34;;;;;;;;;;;;;;;31.95;33.96;99924.69;4972724;28;806;-60
2022/07/17 15:03:00;;;;;;;;;;;;;;;31.79;34.75;99915.09;4973160;28;886;-62
2022/07/17 15:05:28;;;;;;;;;;;;;;;31.58;35.82;99919.91;4959316;28;1285;-61
2022/07/17 15:07:55;;;;;;;;;;;;;;;31.48;36.04;99920.34;4976715;28;893;-61
2022/07/17 15:10:22;;;;;;;;;;;;;;;31.51;37.09;99915.63;4976675;28;806;-61
2022/07/17 15:12:49;;;;;;;;;;;;;;;31.56;36.80;99916.84;4959201;28;1245;-61
2022/07/17 15:15:16;;;;;;;;;;;;;;;31.35;36.43;99923.16;4976513;28;1949;-61
2022/07/17 15:17:43;;;;;;;;;;;;;;;31.13;36.67;99925.09;4976819;28;806;-61
2022/07/17 15:20:11;;;;;;;;;;;;;;;30.81;36.88;99932.81;4976497;28;1032;-61
2022/07/17 15:22:39;;;;;;;;;;;;;;;30.73;37.47;99927.75;4976427;28;901;-61
2022/07/17 15:25:05;;;;;;;;;;;;;;;30.56;37.56;99932.91;4976539;28;878;-64
2022/07/17 15:27:32;;;;;;;;;;;;;;;30.29;38.17;99934.81;4976187;28;889;-60
2022/07/17 15:29:59;;;;;;;;;;;;;;;30.16;38.49;99923.31;4959029;28;1166;-60
2022/07/17 15:32:26;;;;;;;;;;;;;;;29.98;39.21;99931.28;4976351;28;981;-61
2022/07/17 15:35:03;;;;;;;;;;;;;;;29.86;39.14;99929.88;4976199;28;867;-61
2022/07/17 15:37:33;;;;;;;;;;;;;;;29.69;38.39;99930.00;4976304;28;787;-61
2022/07/17 15:40:00;;;;;;;;;;;;;;;29.48;37.79;99930.47;4976242;28;796;-60
2022/07/17 15:45:29;;;;;;;;;;;;;;;29.39;37.93;99930.81;4976124;28;677;-61